Tiempo atmosférico en la estación meteorológica de Sevilla, Tablada, Sevilla (9 m.)



Fecha
DESCASC
Temp. máxima en grados centígrados (hora)
DESCASC
Temp. mínima en grados centígrados (hora)
DESCASC
Temp. media en grados centígrados
DESCASC
Racha de viento máxima en m/sg (hora)
DESCASC
Velocidad máxima media en intervalos de 10 minutos(hora)
DESCASC
Precipitaciones diarias en mm
DESCASC
Precipitaciones de 00:00 a 06:00 en mm
DESCASC
Precipitaciones de 06:00 a 12:00 en mm
DESCASC
Precipitaciones de 12:00 a 18:00 en mm
DESCASC
Precipitaciones de 18:00 a 24:00 en mm
DESCASC
23-05-2020 37 (16:20) 19.3 (05:50) 28.1 5.56 (21:30) 2.78 (21:40) 0 0 0 0 0
22-05-2020 35.8 (17:10) 17.1 (07:10) 26.4 6.11 (22:40) 2.78 (22:40) 0 0 0 0 0
21-05-2020 34.9 (17:10) 17.5 (00:00) 26.2 7.22 (19:00) 4.17 (19:00) 0 0 0 0 0
20-05-2020 33.9 (16:50) 16.2 (00:00) 25.1 5.28 (17:10) 3.33 (20:50) 0 0 0 0 0
19-05-2020 32.3 (18:20) 15.1 (07:10) 23.7 7.22 (14:50) 2.22 (22:50) 0 0 0 0 0
18-05-2020 29.9 (17:40) 14.1 (00:00) 22 5.28 (22:20) 2.22 (16:40) 0 0 0 0 0
17-05-2020 26.6 (17:20) 13.6 (00:00) 20.1 6.67 (20:40) 3.61 (20:50) 0 0 0 0 0
16-05-2020 24.9 (14:10) 14 (00:00) 19.4 9.44 (18:50) 5.28 (18:40) 0 0 0 0 0
15-05-2020 24.7 (16:20) 10.9 (06:00) 17.8 10 (18:10) 5.28 (18:10) 0.8 0 0 0 0.8
14-05-2020 17.1 (15:30) 11.9 (00:00) 14.5 12.5 (19:40) 5.83 (19:40) 32.2 2.8 16.8 5.2 7.4
13-05-2020 22.6 (15:00) 10.6 (00:00) 16.6 10.56 (16:40) 5.56 (16:30) 3 0 0.2 1.2 1.6
12-05-2020 20.6 (17:20) 13.5 (10:10) 17.1 9.72 (14:10) 5.28 (14:10) 24.8 0 24.8 0 0
11-05-2020 23.5 (14:30) 13.8 (00:00) 18.7 13.33 (14:10) 6.67 (13:50) 0.8 0.4 0.4 0 0
10-05-2020 23.5 (15:30) 12.5 (00:00) 18 10.83 (16:50) 5.28 (16:00) 1.6 0 1.4 0.2 0
09-05-2020 23.3 (14:30) 13.6 (07:00) 18.4 10.56 (18:40) 5 (16:00) 4.4 0 0 0 4.4
08-05-2020 27.3 (14:00) 15.7 (00:00) 21.5 10 (17:00) 5.28 (15:00) 0 0 0 0 0
07-05-2020 31.6 (16:50) 18.3 (00:00) 24.9 6.67 (14:30) 3.89 (18:10) 0 0 0 0 0
06-05-2020 30.4 (17:50) 13.1 (00:00) 21.8 5.83 (14:30) 2.78 (14:30) 0 0 0 0 0
05-05-2020 28.6 (16:50) 16.9 (00:00) 22.8 7.22 (21:20) 3.61 (21:10) 0 0 0 0 0
04-05-2020 27.7 (14:20) 17.8 (00:00) 22.8 13.89 (12:40) 6.94 (12:50) 0 0 0 0 0
03-05-2020 34.6 (16:20) 16.6 (05:00) 25.6 5 (08:40) 2.5 (10:20) 0 0 0 0 0
02-05-2020 32.1 (16:30) 14.6 (05:40) 23.3 4.72 (09:30) 2.22 (10:40) 0 0 0 0 0
01-05-2020 28.3 (17:20) 12.3 (00:00) 20.3 6.11 (20:00) 3.61 (19:50) 0 0 0 0 0
30-04-2020 25.1 (17:20) 12.9 (04:00) 19 6.67 (17:10) 3.33 (17:10) 0 0 0 0 0
29-04-2020 24.2 (15:10) 9.7 (00:00) 17 8.61 (17:00) 4.72 (17:30) 0 0 0 0 0
28-04-2020 23.5 (14:20) 11.5 (05:30) 17.5 6.39 (20:40) 3.33 (20:40) 0 0 0 0 0

Gráficas

Temp. máximas Temp. mínimas Temp. medias Precipitaciones Rachas de viento máximas Velocidades máximas media en intervalos de 10 minutos

Datos horarios

Fecha y hora oficial Temperatura (ºC) Velocidad del viento (km/h) Dirección del viento Racha (km/h) Dirección de racha Precipitación (mm) Presión (hPa) Tendencia (hPa) Humedad (%)
2020-05-27 23:00:00 24 4 Sudoeste 8 Sudoeste 0 -- -- 43
2020-05-27 22:00:00 25.9 4 Sudoeste 13 Sudoeste 0 -- -- 40
2020-05-27 21:00:00 28.5 8 Sudoeste 23 Sudeste 0 -- -- 36
2020-05-27 20:00:00 31.3 14 Sudeste 25 Este 0 -- -- 29
2020-05-27 19:00:00 32.8 13 Este 27 Este 0 -- -- 27
2020-05-27 18:00:00 33.7 14 Este 30 Sudeste 0 -- -- 26
2020-05-27 17:00:00 34.2 15 Este 34 Este 0 -- -- 28
2020-05-27 16:00:00 33.6 14 Este 31 Sudeste 0 -- -- 28
2020-05-27 15:00:00 32.9 14 Nordeste 33 Sudeste 0 -- -- 32
2020-05-27 14:00:00 32.4 15 Este 34 Este 0 -- -- 33
2020-05-27 13:00:00 31.3 17 Este 37 Este 0 -- -- 33
2020-05-27 12:00:00 30.5 15 Este 35 Este 0 -- -- 33
2020-05-27 11:00:00 28.4 12 Este 24 Este 0 -- -- 40
2020-05-27 10:00:00 25.8 5 Este 12 Este 0 -- -- 49
2020-05-27 09:00:00 22.7 4 Nordeste 10 Este 0 -- -- 62
2020-05-27 08:00:00 20.2 5 Nordeste 14 Nordeste 0 -- -- 70
2020-05-27 07:00:00 19.7 6 Norte 15 Norte 0 -- -- 67
2020-05-27 06:00:00 20.1 5 Nordeste 14 Norte 0 -- -- 65
2020-05-27 05:00:00 20.7 6 Nordeste 17 Norte 0 -- -- 60
2020-05-27 04:00:00 20.2 3 Noroeste 10 Norte 0 -- -- 62
2020-05-27 03:00:00 20.3 4 Norte 9 Norte 0 -- -- 59
2020-05-27 02:00:00 20.5 4 Noroeste 6 Noroeste 0 -- -- 60
2020-05-27 01:00:00 21.4 3 Noroeste 8 Oeste 0 -- -- 57
2020-05-27 00:00:00 22.6 3 Sudoeste 10 Sudoeste 0 -- -- 53
2020-05-26 23:00:00 23.7 5 Sudoeste 13 Oeste 0 -- -- 50
2020-05-26 22:00:00 25.6 4 Sudoeste 17 Sur 0 -- -- 48
2020-05-26 21:00:00 28.2 9 Sur 25 Sur 0 -- -- 41
2020-05-26 20:00:00 31.4 13 Sur 24 Este 0 -- -- 37
2020-05-26 19:00:00 33.4 11 Este 30 Este 0 -- -- 26
2020-05-26 18:00:00 34.5 13 Este 31 Este 0 -- -- 26
2020-05-26 17:00:00 34.6 15 Este 34 Nordeste 0 -- -- 27
2020-05-26 16:00:00 34.1 13 Nordeste 33 Este 0 -- -- 28
2020-05-26 15:00:00 34.1 13 Este 25 Sudeste 0 -- -- 29
2020-05-26 14:00:00 33.4 10 Este 27 Este 0 -- -- 28
2020-05-26 13:00:00 32 10 Este 23 Este 0 -- -- 30
2020-05-26 12:00:00 30.4 10 Este 23 Este 0 -- -- 29
2020-05-26 11:00:00 28.2 10 Este 21 Nordeste 0 -- -- 33
2020-05-26 10:00:00 25.6 7 Nordeste 20 Este 0 -- -- 41
2020-05-26 09:00:00 22.3 4 Nordeste 12 Nordeste 0 -- -- 50
2020-05-26 08:00:00 19.4 3 Nordeste 14 Norte 0 -- -- 58
2020-05-26 07:00:00 19.4 4 Norte 16 Nordeste 0 -- -- 58
2020-05-26 06:00:00 20.2 8 Nordeste 17 Norte 0 -- -- 55
2020-05-26 05:00:00 20.9 4 Norte 16 Nordeste 0 -- -- 57
2020-05-26 04:00:00 20.9 3 Nordeste 10 Noroeste 0 -- -- 70
2020-05-26 03:00:00 20.5 2 Norte 9 Noroeste 0 -- -- 74
2020-05-26 02:00:00 21.1 0 Calma 4 Sudoeste 0 -- -- 73
2020-05-26 01:00:00 22.2 3 Oeste 12 Sudoeste 0 -- -- 66
2020-05-26 00:00:00 23.6 6 Oeste 18 Oeste 0 -- -- 55
2020-05-25 23:00:00 25.3 6 Sudoeste 19 Oeste 0 -- -- 55
2020-05-25 22:00:00 27.1 8 Sudoeste 23 Sudoeste 0 -- -- 50
2020-05-25 21:00:00 29.2 10 Sudoeste 24 Sudoeste 0 -- -- 44
2020-05-25 20:00:00 31.1 13 Sudoeste 24 Sudoeste 0 -- -- 38
2020-05-25 19:00:00 33.6 13 Sudoeste 27 Sudoeste 0 -- -- 33
2020-05-25 18:00:00 35.8 4 Sudeste 16 Este 0 -- -- 16
2020-05-25 17:00:00 36.1 6 Sudeste 21 Este 0 -- -- 18
2020-05-25 16:00:00 35 8 Nordeste 19 Norte 0 -- -- 23
2020-05-25 15:00:00 34.8 6 Nordeste 17 Sudeste 0 -- -- 25
2020-05-25 14:00:00 33 8 Nordeste 18 Nordeste 0 -- -- 27
2020-05-25 13:00:00 31.9 4 Norte 13 Este 0 -- -- 32
2020-05-25 12:00:00 29.7 8 Norte 15 Norte 0 -- -- 39
2020-05-25 11:00:00 27.8 7 Norte 15 Norte 0 -- -- 47
2020-05-25 10:00:00 25.3 4 Norte 10 Noroeste 0 -- -- 57
2020-05-25 09:00:00 22.3 4 Noroeste 9 Norte 0 -- -- 68
2020-05-25 08:00:00 19.5 4 Noroeste 11 Norte 0 -- -- 76
2020-05-25 07:00:00 19.6 5 Norte 12 Norte 0 -- -- 70
2020-05-25 06:00:00 19.1 0 Calma 4 Norte 0 -- -- 73
2020-05-25 05:00:00 19.8 0 Calma 0 Calma 0 -- -- 71
2020-05-25 04:00:00 20.9 0 Calma 7 Noroeste 0 -- -- 66
2020-05-25 03:00:00 21.6 3 Noroeste 11 Oeste 0 -- -- 67
2020-05-25 02:00:00 21.8 3 Oeste 8 Oeste 0 -- -- 62
2020-05-25 01:00:00 22.7 4 Sudoeste 9 Sudoeste 0 -- -- 45
2020-05-25 00:00:00 24 4 Sudoeste 16 Sudoeste 0 -- -- 43
2020-05-24 23:00:00 25.4 7 Sudoeste 16 Sudoeste 0 -- -- 38
2020-05-24 22:00:00 27.1 10 Sur 24 Sur 0 -- -- 40
2020-05-24 21:00:00 29.6 15 Sur 29 Sur 0 -- -- 38
2020-05-24 20:00:00 32.8 10 Sudoeste 22 Sur 0 -- -- 36
2020-05-24 19:00:00 34.9 5 Sur 15 Oeste 0 -- -- 30
2020-05-24 18:00:00 35.7 4 Sudoeste 13 Noroeste 0 -- -- 29
2020-05-24 17:00:00 35.4 5 Sur 12 Noroeste 0 -- -- 31
2020-05-24 16:00:00 35.4 5 Noroeste 14 Oeste 0 -- -- 33
2020-05-24 15:00:00 34.2 5 Sudoeste 14 Sur 0 -- -- 31
2020-05-24 14:00:00 33.3 6 Sudeste 13 Sudeste 0 -- -- 33
2020-05-24 13:00:00 32.7 5 Nordeste 12 Nordeste 0 -- -- 39
2020-05-24 12:00:00 31 3 Este 11 Noroeste 0 -- -- 44
2020-05-24 11:00:00 28.8 2 Noroeste 8 Sudoeste 0 -- -- 46
2020-05-24 10:00:00 25.7 4 Sur 6 Sudoeste 0 -- -- 61
2020-05-24 09:00:00 23.3 0 Calma 6 Oeste 0 -- -- 67
2020-05-24 08:00:00 20 3 Noroeste 7 Norte 0 -- -- 77
2020-05-24 07:00:00 20 3 Norte 11 Norte 0 -- -- 75
2020-05-24 06:00:00 20 0 Calma 5 Sudoeste 0 -- -- 70
2020-05-24 05:00:00 20.5 3 Sur 8 Sudeste 0 -- -- 68
2020-05-24 04:00:00 21.1 3 Sur 8 Sur 0 -- -- 64
2020-05-24 03:00:00 22 4 Sur 9 Sudoeste 0 -- -- 62
2020-05-24 02:00:00 23.5 3 Sur 9 Oeste 0 -- -- 55
2020-05-24 01:00:00 24.7 0 Calma 11 Sudoeste 0 -- -- 52
2020-05-24 00:00:00 26.1 7 Sur 15 Sudoeste 0 -- -- 48
2020-05-23 23:00:00 27 6 Sudoeste 18 Sudoeste 0 -- -- 47
2020-05-23 22:00:00 28.2 7 Sudoeste 20 Sur 0 -- -- 49
2020-05-23 21:00:00 32 2 Norte 10 Norte 0 -- -- 36
2020-05-23 20:00:00 34 6 Norte 19 Norte 0 -- -- 30
2020-05-23 19:00:00 35.6 8 Norte 16 Norte 0 -- -- 29
2020-05-23 18:00:00 36.6 7 Norte 15 Norte 0 -- -- 30
2020-05-23 17:00:00 36.8 5 Noroeste 17 Norte 0 -- -- 30
2020-05-23 16:00:00 36.7 7 Sudeste 16 Nordeste 0 -- -- 28
2020-05-23 15:00:00 36.1 3 Norte 14 Noroeste 0 -- -- 28
2020-05-23 14:00:00 34.8 4 Sudeste 14 Norte 0 -- -- 33
2020-05-23 13:00:00 33.3 5 Norte 15 Este 0 -- -- 37
2020-05-23 12:00:00 31.4 6 Nordeste 14 Este 0 -- -- 41
2020-05-23 11:00:00 29.1 5 Nordeste 12 Norte 0 -- -- 48
2020-05-23 10:00:00 26.4 4 Norte 9 Norte 0 -- -- 58
2020-05-23 09:00:00 22.7 4 Norte 8 Norte 0 -- -- 70
2020-05-23 08:00:00 20.5 3 Norte 10 Nordeste 0 -- -- 76
2020-05-23 07:00:00 19.7 3 Nordeste 10 Nordeste 0 -- -- 78
2020-05-23 06:00:00 19.3 4 Noroeste 7 Noroeste 0 -- -- 82
2020-05-23 05:00:00 19.6 0 Calma 3 Sudoeste 0 -- -- 79
2020-05-23 04:00:00 20.3 2 Sudoeste 5 Sudoeste 0 -- -- 74
2020-05-23 03:00:00 21.3 2 Sudoeste 5 Sudoeste 0 -- -- 70
2020-05-23 02:00:00 22.8 3 Sudoeste 6 Sudeste 0 -- -- 62
2020-05-23 01:00:00 24.9 4 Sudeste 9 Noroeste 0 -- -- 56
2020-05-23 00:00:00 26.8 5 Noroeste 15 Noroeste 0 -- -- 46
2020-05-22 23:00:00 27.9 6 Noroeste 22 Noroeste 0 -- -- 42
2020-05-22 22:00:00 28.7 5 Oeste 15 Oeste 0 -- -- 41
2020-05-22 21:00:00 30.8 5 Oeste 12 Oeste 0 -- -- 35
2020-05-22 20:00:00 32.8 6 Oeste 14 Oeste 0 -- -- 29
2020-05-22 19:00:00 34.4 8 Sudoeste 15 Sudoeste 0 -- -- 24
2020-05-22 18:00:00 35.5 5 Sudoeste 14 Sudoeste 0 -- -- 23
2020-05-22 17:00:00 35.7 7 Sudoeste 15 Sudoeste 0 -- -- 25
2020-05-22 16:00:00 35.2 8 Sudoeste 16 Oeste 0 -- -- 28
2020-05-22 15:00:00 34.7 3 Sudeste 9 Oeste 0 -- -- 30
2020-05-22 14:00:00 33.8 6 Noroeste 10 Noroeste 0 -- -- 38
2020-05-22 13:00:00 32.3 4 Nordeste 14 Este 0 -- -- 40
2020-05-22 12:00:00 30 7 Nordeste 17 Norte 0 -- -- 45
2020-05-22 11:00:00 27.8 6 Nordeste 15 Nordeste 0 -- -- 53
2020-05-22 10:00:00 25 7 Norte 15 Norte 0 -- -- 67
2020-05-22 09:00:00 21.6 5 Norte 10 Norte 0 -- -- 81
2020-05-22 08:00:00 17.8 5 Norte 10 Noroeste 0 -- -- 93
2020-05-22 07:00:00 17.2 0 Calma 0 Calma 0 -- -- 91
2020-05-22 06:00:00 17.9 0 Calma -- -- 0 -- -- 92
2020-05-22 05:00:00 18.3 0 Calma 0 Calma 0 -- -- 90
2020-05-22 04:00:00 19 0 Calma 6 Sur 0 -- -- 89
2020-05-22 03:00:00 19.5 4 Sur 9 Sur 0 -- -- 88
2020-05-22 02:00:00 20.3 5 Sudoeste 11 Sudoeste 0 -- -- 85
2020-05-22 01:00:00 21.4 4 Sur 11 Sur 0 -- -- 79
2020-05-22 00:00:00 22.9 6 Sudoeste 10 Sur 0 -- -- 73
2020-05-21 23:00:00 24.5 5 Sur 10 Sur 0 -- -- 66
2020-05-21 22:00:00 26.5 6 Sudeste 10 Sur 0 -- -- 61
2020-05-21 21:00:00 29.2 6 Sudoeste 21 Sudoeste 0 -- -- 54
2020-05-21 20:00:00 30.7 10 Sudoeste 26 Sur 0 -- -- 46
2020-05-21 19:00:00 32 15 Sur 26 Sur 0 -- -- 47
2020-05-21 18:00:00 34.7 5 Sudoeste 12 Noroeste 0 -- -- 26
2020-05-21 17:00:00 34.8 7 Oeste 15 Oeste 0 -- -- 24
2020-05-21 16:00:00 34.4 6 Oeste 14 Sudoeste 0 -- -- 31
2020-05-21 15:00:00 34 5 Sudoeste 12 Oeste 0 -- -- 36
2020-05-21 14:00:00 33 4 Nordeste 12 Norte 0 -- -- 39
2020-05-21 13:00:00 31.9 4 Norte 12 Nordeste 0 -- -- 41
2020-05-21 12:00:00 30 6 Nordeste 12 Nordeste 0 -- -- 48
2020-05-21 11:00:00 27.6 4 Nordeste 12 Norte 0 -- -- 52
2020-05-21 10:00:00 25.2 4 Norte 10 Norte 0 -- -- 64
2020-05-21 09:00:00 21.5 0 Calma 3 Sudoeste 0 -- -- 75
2020-05-21 08:00:00 17.6 0 Calma 6 Sudoeste 0 -- -- 88
2020-05-21 07:00:00 17.6 3 Sudoeste 5 Sur 0 -- -- 90
2020-05-21 06:00:00 17.8 0 Calma -- -- 0 -- -- 87
2020-05-21 05:00:00 18.5 0 Calma 4 Sudeste 0 -- -- 85
2020-05-21 04:00:00 18.9 2 Sudoeste 5 Sudeste 0 -- -- 84
2020-05-21 03:00:00 19.5 3 Sur 7 Sur 0 -- -- 81
2020-05-21 02:00:00 20.5 2 Sur 13 Sudoeste 0 -- -- 76
2020-05-21 01:00:00 22.2 3 Sur 9 Sudeste 0 -- -- 64
2020-05-21 00:00:00 23.3 4 Sur 10 Sudoeste 0 -- -- 55
2020-05-20 23:00:00 24.8 4 Sudoeste 17 Oeste 0 -- -- 52
2020-05-20 22:00:00 26.2 5 Sudoeste 17 Sur 0 -- -- 50
2020-05-20 21:00:00 28.5 10 Sudoeste 19 Sudoeste 0 -- -- 45
2020-05-20 20:00:00 31.1 4 Sudoeste 15 Sudoeste 0 -- -- 36
2020-05-20 19:00:00 32.3 6 Sur 16 Sudoeste 0 -- -- 33
2020-05-20 18:00:00 33.5 6 Oeste 19 Sudoeste 0 -- -- 33
2020-05-20 17:00:00 33.8 6 Oeste 17 Sudoeste 0 -- -- 34
2020-05-20 16:00:00 33.4 4 Noroeste 16 Oeste 0 -- -- 36
2020-05-20 15:00:00 32.8 6 Noroeste 15 Oeste 0 -- -- 38
2020-05-20 14:00:00 31.6 4 Oeste 12 Sur 0 -- -- 44
2020-05-20 13:00:00 30.6 5 Noroeste 9 Noroeste 0 -- -- 48
2020-05-20 12:00:00 28.4 4 Este 12 Sudeste 0 -- -- 52
2020-05-20 11:00:00 26.5 4 Norte 9 Norte 0 -- -- 58
2020-05-20 10:00:00 24 4 Norte 13 Norte 0 -- -- 66
2020-05-20 09:00:00 20.6 4 Nordeste 9 Norte 0 -- -- 78
2020-05-20 08:00:00 16.6 5 Noroeste 7 Norte 0 -- -- 93
2020-05-20 07:00:00 16.3 0 Calma 3 Oeste 0 -- -- 91
2020-05-20 06:00:00 16.8 0 Calma 3 Oeste 0 -- -- 89
2020-05-20 05:00:00 17.5 0 Calma 6 Sur 0 -- -- 88
2020-05-20 04:00:00 17.8 3 Sur 8 Sur 0 -- -- 87
2020-05-20 03:00:00 18.5 4 Sur 11 Sur 0 -- -- 85
2020-05-20 02:00:00 19.2 6 Sur 13 Sur 0 -- -- 82
2020-05-20 01:00:00 20.5 4 Sur 12 Sur 0 -- -- 72
2020-05-20 00:00:00 23.2 4 Sudeste 17 Oeste 0 -- -- 58
2020-05-19 23:00:00 24.7 7 Noroeste 18 Noroeste 0 -- -- 49
2020-05-19 22:00:00 25.6 4 Oeste 6 Noroeste 0 -- -- 52
2020-05-19 21:00:00 28 4 Noroeste 9 Noroeste 0 -- -- 43
2020-05-19 20:00:00 29.8 3 Nordeste 10 Norte 0 -- -- 37
2020-05-19 19:00:00 31 4 Sudoeste 14 Norte 0 -- -- 38
2020-05-19 18:00:00 32.1 6 Oeste 13 Oeste 0 -- -- 36
2020-05-19 17:00:00 32.2 6 Oeste 14 Oeste 0 -- -- 38
2020-05-19 16:00:00 31.7 6 Sur 15 Sur 0 -- -- 39
2020-05-19 15:00:00 31.6 6 Oeste 26 Sudoeste 0 -- -- 40
2020-05-19 14:00:00 30.7 6 Sudeste 12 Este 0 -- -- 41
2020-05-19 13:00:00 29.1 4 Norte 12 Este 0 -- -- 48
2020-05-19 12:00:00 27.4 5 Este 11 Norte 0 -- -- 52
2020-05-19 11:00:00 25 4 Norte 12 Noroeste 0 -- -- 59
2020-05-19 10:00:00 22.2 6 Norte 12 Este 0 -- -- 68
2020-05-19 09:00:00 19 4 Norte 8 Norte 0 -- -- 83
2020-05-19 08:00:00 15.7 5 Norte 9 Norte 0 -- -- 94
2020-05-19 07:00:00 15.2 0 Calma 3 Noroeste 0 -- -- 92
2020-05-19 06:00:00 15.7 0 Calma 5 Sudoeste 0 -- -- 90
2020-05-19 05:00:00 16.3 0 Calma 4 Sur 0 -- -- 88
2020-05-19 04:00:00 17.1 0 Calma 7 Sudoeste 0 -- -- 84
2020-05-19 03:00:00 18.3 4 Sur 12 Sudeste 0 -- -- 79
2020-05-19 02:00:00 19.8 5 Sur 17 Oeste 0 -- -- 68
2020-05-19 01:00:00 20.7 0 Calma 10 Oeste 0 -- -- 58
2020-05-19 00:00:00 21.2 0 Calma 8 Norte 0 -- -- 63
2020-05-18 23:00:00 22.4 3 Oeste 19 Oeste 0 -- -- 58
2020-05-18 22:00:00 23.8 6 Oeste 15 Oeste 0 -- -- 58
2020-05-18 21:00:00 26.4 4 Sudoeste 9 Sudoeste 0 -- -- 47
2020-05-18 20:00:00 27.7 4 Sudoeste 11 Norte 0 -- -- 42
2020-05-18 19:00:00 28.8 4 Noroeste 13 Noroeste 0 -- -- 40
2020-05-18 18:00:00 29.7 4 Oeste 15 Norte 0 -- -- 37
2020-05-18 17:00:00 29.7 4 Nordeste 14 Norte 0 -- -- 38
2020-05-18 16:00:00 29.4 5 Este 18 Noroeste 0 -- -- 37
2020-05-18 15:00:00 28.8 5 Noroeste 12 Oeste 0 -- -- 44
2020-05-18 14:00:00 27.6 4 Sudeste 12 Oeste 0 -- -- 52
2020-05-18 13:00:00 26.5 6 Norte 11 Nordeste 0 -- -- 58
2020-05-18 12:00:00 24.5 4 Norte 11 Nordeste 0 -- -- 63
2020-05-18 11:00:00 21.9 4 Este 10 Sudeste 0 -- -- 75
2020-05-18 10:00:00 18.1 5 Nordeste 10 Este 0 -- -- 94
2020-05-18 09:00:00 16.5 5 Nordeste 12 Norte 0 -- -- 97
2020-05-18 08:00:00 16 4 Nordeste 12 Nordeste 0 -- -- 98
2020-05-18 07:00:00 14.2 2 Noroeste 5 Noroeste 0 -- -- 96
2020-05-18 06:00:00 14.3 0 Calma 0 Calma 0 -- -- 94
2020-05-18 05:00:00 14.8 0 Calma 4 Sudoeste 0 -- -- 92
2020-05-18 04:00:00 15.4 0 Calma 5 Sudoeste 0 -- -- 92
2020-05-18 03:00:00 16.2 2 Sur 7 Sur 0 -- -- 93
2020-05-18 02:00:00 16.6 3 Sur 6 Sudoeste 0 -- -- 92
2020-05-18 01:00:00 17.1 3 Sur 6 Sur 0 -- -- 89
2020-05-18 00:00:00 17.5 2 Sur 10 Sur 0 -- -- 85
2020-05-17 23:00:00 18.2 6 Sur 14 Sur 0 -- -- 82
2020-05-17 22:00:00 19.3 8 Sudoeste 17 Sudoeste 0 -- -- 74
2020-05-17 21:00:00 21.2 9 Sur 24 Sur 0 -- -- 70
2020-05-17 20:00:00 23.5 7 Oeste 18 Oeste 0 -- -- 61
2020-05-17 19:00:00 24.6 4 Sudoeste 12 Sudoeste 0 -- -- 57
2020-05-17 18:00:00 25.5 4 Oeste 15 Sudoeste 0 -- -- 54
2020-05-17 17:00:00 26.3 5 Oeste 13 Sudoeste 0 -- -- 52
2020-05-17 16:00:00 25.4 6 Sudoeste 13 Oeste 0 -- -- 58
2020-05-17 15:00:00 24.5 5 Oeste 14 Sur 0 -- -- 62
2020-05-17 14:00:00 22.8 6 Sur 12 Sudeste 0 -- -- 68
2020-05-17 13:00:00 21.2 4 Norte 9 Nordeste 0 -- -- 75
2020-05-17 12:00:00 18.4 3 Nordeste 13 Norte 0 -- -- 82
2020-05-17 11:00:00 17.3 4 Nordeste 9 Este 0 -- -- 87
2020-05-17 10:00:00 16.5 0 Calma 7 Sudeste 0 -- -- 91
2020-05-17 09:00:00 15.8 0 Calma 3 Oeste 0 -- -- 96
2020-05-17 08:00:00 15 0 Calma 4 Norte 0 -- -- 96
2020-05-17 07:00:00 14.4 0 Calma 2 Sudeste 0 -- -- 96
2020-05-17 06:00:00 13.6 0 Calma 5 Sudoeste 0 -- -- 95
2020-05-17 05:00:00 13.8 0 Calma 4 Sudoeste 0 -- -- 95
2020-05-17 04:00:00 14.4 2 Sudoeste 10 Sudoeste 0 -- -- 94
2020-05-17 03:00:00 15 3 Sudoeste 6 Sur 0 -- -- 94
2020-05-17 02:00:00 15.3 2 Sudoeste 6 Sudoeste 0 -- -- 92
2020-05-17 01:00:00 15.5 3 Sur 7 Sudeste 0 -- -- 91
2020-05-17 00:00:00 15.8 3 Sur 9 Sudoeste 0 -- -- 90
2020-05-16 23:00:00 16.4 4 Sudoeste 12 Sudoeste 0 -- -- 87
2020-05-16 22:00:00 17.4 4 Sudoeste 15 Sur 0 -- -- 83
2020-05-16 21:00:00 18.8 11 Sudoeste 23 Sur 0 -- -- 77
2020-05-16 20:00:00 19.9 12 Sur 29 Sudoeste 0 -- -- 73
2020-05-16 19:00:00 21.6 13 Sudoeste 34 Sudoeste 0 -- -- 63
2020-05-16 18:00:00 23.6 12 Sudoeste 19 Sudoeste 0 -- -- 53
2020-05-16 17:00:00 24 9 Sudoeste 17 Oeste 0 -- -- 53
2020-05-16 16:00:00 24.6 7 Oeste 15 Sudoeste 0 -- -- 51
2020-05-16 15:00:00 24.3 4 Sudoeste 13 Sudoeste 0 -- -- 51
2020-05-16 14:00:00 24.2 5 Norte 10 Norte 0 -- -- 60
2020-05-16 13:00:00 23.5 3 Noroeste 10 Norte 0 -- -- 59
2020-05-16 12:00:00 21.9 3 Sudeste 9 Sudeste 0 -- -- 65
2020-05-16 11:00:00 21.1 5 Norte 13 Norte 0 -- -- 74
2020-05-16 10:00:00 17.5 4 Nordeste 9 Nordeste 0 -- -- 86
2020-05-16 09:00:00 14.7 2 Norte 8 Norte 0 -- -- 95
2020-05-16 08:00:00 14.1 0 Calma 4 Oeste 0 -- -- 96
2020-05-16 07:00:00 14.2 0 Calma 3 Sur 0 -- -- 95
2020-05-16 06:00:00 14.1 2 Oeste 4 Noroeste 0 -- -- 94
2020-05-16 05:00:00 14.2 0 Calma 5 Norte 0 -- -- 91
2020-05-16 04:00:00 14.5 3 Norte 6 Norte 0 -- -- 89
2020-05-16 03:00:00 15.1 2 Noroeste 6 Noroeste 0 -- -- 89
2020-05-16 02:00:00 15.2 0 Calma 6 Norte 0 -- -- 90
2020-05-16 01:00:00 15.4 2 Noroeste 5 Noroeste 0 -- -- 91
2020-05-16 00:00:00 15.4 0 Calma 9 Oeste 0 -- -- 88
2020-05-15 23:00:00 16.3 0 Calma 5 Oeste 0.4 -- -- 87
2020-05-15 22:00:00 17.1 4 Sudoeste 14 Oeste 0.4 -- -- 81
2020-05-15 21:00:00 18.5 7 Sudoeste 21 Sudoeste 0 -- -- 71
2020-05-15 20:00:00 19.8 12 Sudoeste 25 Oeste 0 -- -- 65
2020-05-15 19:00:00 20 13 Sudoeste 36 Sudoeste 0 -- -- 69
2020-05-15 18:00:00 23.5 14 Sudoeste 29 Sudoeste 0 -- -- 58
2020-05-15 17:00:00 24.4 3 Norte 18 Norte 0 -- -- 43
2020-05-15 16:00:00 24.2 4 Este 17 Nordeste 0 -- -- 43
2020-05-15 15:00:00 23.7 5 Este 15 Este 0 -- -- 46
2020-05-15 14:00:00 22.9 6 Nordeste 19 Nordeste 0 -- -- 53
2020-05-15 13:00:00 21.1 9 Nordeste 22 Nordeste 0 -- -- 60
2020-05-15 12:00:00 20.4 10 Nordeste 22 Nordeste 0 -- -- 59
2020-05-15 11:00:00 18.6 8 Nordeste 18 Nordeste 0 -- -- 74
2020-05-15 10:00:00 16.5 6 Nordeste 13 Nordeste 0 -- -- 86
2020-05-15 09:00:00 13.7 4 Norte 14 Norte 0 -- -- 97
2020-05-15 08:00:00 11.7 4 Norte 7 Nordeste 0 -- -- 98
2020-05-15 07:00:00 11.1 3 Norte 6 Norte 0 -- -- 98
2020-05-15 06:00:00 10.9 2 Norte 6 Norte 0 -- -- 97
2020-05-15 05:00:00 11.1 2 Norte 4 Norte 0 -- -- 97
2020-05-15 04:00:00 11.7 3 Nordeste 7 Sudeste 0 -- -- 95
2020-05-15 03:00:00 12.4 4 Este 9 Sudeste 0 -- -- 95
2020-05-15 02:00:00 13 4 Sudeste 12 Sudeste 0 -- -- 95
2020-05-15 01:00:00 13.6 0 Calma 10 Sudeste 0 -- -- 95
2020-05-15 00:00:00 14.1 5 Sudeste 13 Sudeste 0 -- -- 96
2020-05-14 23:00:00 13.6 5 Sur 9 Sudeste 1.4 -- -- 96
2020-05-14 22:00:00 12.9 0 Calma 11 Sudeste 1.2 -- -- 94
2020-05-14 21:00:00 13.3 6 Sur 24 Sur 2.2 -- -- 92
2020-05-14 20:00:00 14 9 Sur 45 Sur 2.6 -- -- 91
2020-05-14 19:00:00 15.7 8 Sur 25 Sudoeste 0 -- -- 91
2020-05-14 18:00:00 14.9 12 Sudoeste 28 Sudoeste 0.8 -- -- 90
2020-05-14 17:00:00 15 13 Sur 24 Sudoeste 0.2 -- -- 92
2020-05-14 16:00:00 15.2 15 Sur 39 Sur 0.8 -- -- 89
2020-05-14 15:00:00 15.1 8 Sur 23 Sur 0.6 -- -- 96
2020-05-14 14:00:00 13.7 6 Sur 23 Sur 2.4 -- -- 93
2020-05-14 13:00:00 14.4 11 Sur 22 Sur 0.4 -- -- 96
2020-05-14 12:00:00 13.8 10 Sur 28 Sur 1.2 -- -- 96
2020-05-14 11:00:00 13 14 Sur 27 Sur 5.4 -- -- 97
2020-05-14 10:00:00 12.4 8 Sur 21 Sudeste 5 -- -- 96
2020-05-14 09:00:00 12.2 6 Sur 15 Sur 2.8 -- -- 96
2020-05-14 08:00:00 12.1 6 Sur 18 Sudoeste 2.4 -- -- 95
2020-05-14 07:00:00 11.9 5 Sur 14 Sur 0 -- -- 95
2020-05-14 06:00:00 12.2 6 Sur 14 Sur 0.2 -- -- 96
2020-05-14 05:00:00 12.2 2 Sur 8 Sudeste 0.8 -- -- 95
2020-05-14 04:00:00 12.3 0 Calma 8 Sudeste 0 -- -- 93
2020-05-14 03:00:00 12.8 6 Sudeste 13 Sudeste 1.4 -- -- 93
2020-05-14 02:00:00 13.1 5 Sur 13 Sur 0.4 -- -- 94
2020-05-14 01:00:00 12.8 3 Sur 13 Sudeste 0 -- -- 94
2020-05-14 00:00:00 13 0 Calma 8 Sur 0 -- -- 93
2020-05-13 23:00:00 13.1 2 Sudoeste 12 Oeste 0 -- -- 91
2020-05-13 22:00:00 13.8 5 Sudoeste 18 Sur 0 -- -- 92
2020-05-13 21:00:00 13.9 10 Sudoeste 21 Sudoeste 0.2 -- -- 89
2020-05-13 20:00:00 14.8 9 Sudoeste 22 Sudoeste 0.2 -- -- 85
2020-05-13 19:00:00 15.6 13 Oeste 35 Sudoeste 1.2 -- -- 84
2020-05-13 18:00:00 18.9 10 Sur 37 Sudoeste 0.8 -- -- 73
2020-05-13 17:00:00 21.9 19 Sur 38 Sudoeste 0 -- -- 52
2020-05-13 16:00:00 21.5 18 Sudoeste 34 Sur 0 -- -- 54
2020-05-13 15:00:00 22.6 14 Sur 31 Sudoeste 0 -- -- 50
2020-05-13 14:00:00 20.5 17 Sur 30 Sur 0 -- -- 59
2020-05-13 13:00:00 18.1 10 Sudoeste 29 Sur 0.4 -- -- 77
2020-05-13 12:00:00 18.9 16 Sur 29 Sudeste 0.2 -- -- 78
2020-05-13 11:00:00 17 6 Sur 15 Sudoeste 0 -- -- 80
2020-05-13 10:00:00 15.8 6 Sur 14 Sudeste 0 -- -- 86
2020-05-13 09:00:00 13.5 0 Calma 4 Sur 0 -- -- 97
2020-05-13 08:00:00 12.2 0 Calma 10 Sudeste 0 -- -- 97
2020-05-13 07:00:00 11.5 0 Calma 5 Sur 0 -- -- 97
2020-05-13 06:00:00 10.6 3 Sur 4 Sudoeste 0 -- -- 95
2020-05-13 05:00:00 11 0 Calma 4 Sudoeste 0 -- -- 94
2020-05-13 04:00:00 11.6 0 Calma 5 Sur 0 -- -- 93
2020-05-13 03:00:00 12 2 Sur 7 Sur 0 -- -- 92
2020-05-13 02:00:00 12.6 4 Sudoeste 10 Sudoeste 0 -- -- 92
2020-05-13 01:00:00 13.4 4 Sur 10 Sur 0 -- -- 89
2020-05-13 00:00:00 13.9 4 Sur 9 Sudoeste 0 -- -- 86
2020-05-12 23:00:00 14.2 5 Sur 14 Sudoeste 0 -- -- 82
2020-05-12 22:00:00 15.3 6 Sudoeste 21 Sudoeste 0 -- -- 78
2020-05-12 21:00:00 16.6 12 Sudoeste 27 Sudoeste 0 -- -- 72
2020-05-12 20:00:00 18 15 Sudoeste 28 Sudoeste 0 -- -- 67
2020-05-12 19:00:00 19 17 Sudoeste 31 Sudoeste 0 -- -- 64
2020-05-12 18:00:00 19.2 15 Sudoeste 31 Sudoeste 0 -- -- 64
2020-05-12 17:00:00 20.1 16 Sudoeste 35 Sudoeste 0 -- -- 59
2020-05-12 16:00:00 18.4 15 Sur 31 Sudoeste 0 -- -- 68
2020-05-12 15:00:00 18.6 14 Sur 35 Sur 0 -- -- 74
2020-05-12 14:00:00 18.2 15 Sur 32 Sudoeste 0 -- -- 74
2020-05-12 13:00:00 18.5 10 Sur 22 Sudoeste 0 -- -- 78
2020-05-12 12:00:00 15.2 10 Sur 18 Sur 0 -- -- 95
2020-05-12 11:00:00 13.7 4 Sur 10 Sur 1.4 -- -- 94
2020-05-12 10:00:00 13.6 5 Nordeste 12 Oeste 23.4 -- -- 94
2020-05-12 09:00:00 14.7 6 Noroeste 10 Noroeste 0 -- -- 95
2020-05-12 08:00:00 14.2 0 Calma 6 Este 0 -- -- 95
2020-05-12 07:00:00 13.9 0 Calma 6 Sudoeste 0 -- -- 95
2020-05-12 06:00:00 13.7 0 Calma 4 Sudoeste 0 -- -- 95
2020-05-12 05:00:00 13.7 0 Calma 2 Noroeste 0 -- -- 93
2020-05-12 04:00:00 14.2 0 Calma 4 Oeste 0 -- -- 92
2020-05-12 03:00:00 14.5 0 Calma 3 Sur 0 -- -- 91
2020-05-12 02:00:00 15 0 Calma 4 Sudoeste 0 -- -- 89
2020-05-12 01:00:00 15.6 0 Calma 4 Sudoeste 0 -- -- 87
2020-05-12 00:00:00 16.1 0 Calma 9 Sur 0 -- -- 83
2020-05-11 23:00:00 16.7 5 Sudoeste 10 Sudoeste 0 -- -- 79
2020-05-11 22:00:00 17.8 5 Sudoeste 14 Sudoeste 0 -- -- 72
2020-05-11 21:00:00 19.2 6 Sudoeste 21 Oeste 0 -- -- 63
2020-05-11 20:00:00 20.1 9 Sudoeste 26 Sudoeste 0 -- -- 60
2020-05-11 19:00:00 20.7 13 Sudoeste 31 Sudoeste 0 -- -- 61
2020-05-11 18:00:00 22 16 Sudoeste 35 Sudoeste 0 -- -- 56
2020-05-11 17:00:00 23 20 Sudoeste 41 Sudoeste 0 -- -- 51
2020-05-11 16:00:00 23 19 Oeste 40 Oeste 0 -- -- 51
2020-05-11 15:00:00 22.4 21 Sudoeste 48 Oeste 0 -- -- 57
2020-05-11 14:00:00 23 23 Sudoeste 45 Sudoeste 0 -- -- 54
2020-05-11 13:00:00 22 17 Oeste 37 Oeste 0 -- -- 61
2020-05-11 12:00:00 20.4 12 Sudoeste 35 Sudoeste 0 -- -- 76
2020-05-11 11:00:00 18.8 13 Oeste 37 Oeste 0.4 -- -- 82
2020-05-11 10:00:00 18.1 14 Sur 30 Sur 0 -- -- 88
2020-05-11 09:00:00 16.6 13 Sur 25 Sur 0 -- -- 89
2020-05-11 08:00:00 15.7 12 Sur 21 Sur 0 -- -- 92
2020-05-11 07:00:00 15.3 9 Sur 15 Sur 0 -- -- 94
2020-05-11 06:00:00 14.8 5 Sur 12 Sur 0.2 -- -- 94
2020-05-11 05:00:00 14.4 3 Sur 10 Sudoeste 0.2 -- -- 94
2020-05-11 04:00:00 13.8 5 Sur 10 Sudoeste 0 -- -- 93
2020-05-11 03:00:00 13.9 2 Sur 9 Sur 0 -- -- 90
2020-05-11 02:00:00 14.7 5 Sur 13 Sudoeste 0 -- -- 89
2020-05-11 01:00:00 15.1 6 Sudoeste 18 Sudoeste 0 -- -- 87
2020-05-11 00:00:00 15.8 9 Sudoeste 22 Oeste 0 -- -- 83
2020-05-10 23:00:00 16.7 9 Oeste 23 Oeste 0 -- -- 78
2020-05-10 22:00:00 17.3 9 Sudoeste 26 Sudoeste 0 -- -- 74
2020-05-10 21:00:00 18.1 12 Sudoeste 36 Sudoeste 0 -- -- 73
2020-05-10 20:00:00 19.2 17 Sudoeste 34 Oeste 0 -- -- 68
2020-05-10 19:00:00 19.1 14 Sudoeste 36 Sudoeste 0 -- -- 70
2020-05-10 18:00:00 21.8 10 Noroeste 29 Sudoeste 0 -- -- 60
2020-05-10 17:00:00 21.4 16 Noroeste 39 Noroeste 0 -- -- 64
2020-05-10 16:00:00 21.7 19 Sudoeste 36 Sudoeste 0 -- -- 63
2020-05-10 15:00:00 23.3 10 Oeste 24 Oeste 0 -- -- 55
2020-05-10 14:00:00 20.4 10 Oeste 22 Oeste 0.2 -- -- 71
2020-05-10 13:00:00 21.3 11 Oeste 25 Oeste 0 -- -- 63
2020-05-10 12:00:00 18.6 8 Sudoeste 21 Oeste 0.2 -- -- 80
2020-05-10 11:00:00 16.5 4 Noroeste 17 Sudoeste 1.2 -- -- 89
2020-05-10 10:00:00 15.6 8 Sudoeste 14 Sur 0 -- -- 92
2020-05-10 09:00:00 14 7 Sur 12 Sur 0 -- -- 96
2020-05-10 08:00:00 12.9 2 Sur 5 Sudoeste 0 -- -- 95
2020-05-10 07:00:00 12.5 2 Sudoeste 5 Sudoeste 0 -- -- 92
2020-05-10 06:00:00 13.3 3 Oeste 13 Oeste 0 -- -- 91
2020-05-10 05:00:00 13.8 4 Oeste 12 Oeste 0 -- -- 90
2020-05-10 04:00:00 14.7 5 Oeste 12 Oeste 0 -- -- 89
2020-05-10 03:00:00 15.2 4 Oeste 12 Oeste 0 -- -- 91
2020-05-10 02:00:00 15.3 4 Oeste 14 Sudoeste 0 -- -- 93
2020-05-10 01:00:00 15.3 6 Sudoeste 17 Sur 0 -- -- 95
2020-05-10 00:00:00 15.2 8 Sudoeste 18 Sudoeste 0 -- -- 95
2020-05-09 23:00:00 14.8 5 Sudoeste 16 Sudoeste 0 -- -- 94
2020-05-09 22:00:00 15.2 9 Sudoeste 23 Sudoeste 0 -- -- 94
2020-05-09 21:00:00 15.4 10 Sudoeste 22 Sudoeste 0 -- -- 92
2020-05-09 20:00:00 16.3 10 Sudoeste 23 Oeste 3.8 -- -- 93
2020-05-09 19:00:00 18 11 Sudoeste 38 Sudoeste 0.6 -- -- 80
2020-05-09 18:00:00 20.7 18 Sudoeste 36 Sudoeste 0 -- -- 58
2020-05-09 17:00:00 21.9 15 Sudoeste 32 Sudoeste 0 -- -- 55
2020-05-09 16:00:00 22.3 18 Sudoeste 36 Oeste 0 -- -- 50
2020-05-09 15:00:00 22.4 16 Sudoeste 29 Sudoeste 0 -- -- 48
2020-05-09 14:00:00 22.6 15 Sudoeste 33 Sudoeste 0 -- -- 50
2020-05-09 13:00:00 22 14 Sudoeste 28 Sudoeste 0 -- -- 56
2020-05-09 12:00:00 20.3 10 Sudoeste 25 Oeste 0 -- -- 60
2020-05-09 11:00:00 19.9 11 Sudoeste 21 Oeste 0 -- -- 63
2020-05-09 10:00:00 17.7 8 Sudoeste 15 Sur 0 -- -- 80
2020-05-09 09:00:00 15.4 5 Sur 11 Sur 0 -- -- 91
2020-05-09 08:00:00 14.3 5 Sudoeste 14 Sudoeste 0 -- -- 92
2020-05-09 07:00:00 13.6 5 Sudoeste 10 Sur 0 -- -- 90
2020-05-09 06:00:00 13.9 4 Sur 9 Sudoeste 0 -- -- 91
2020-05-09 05:00:00 14 4 Sur 10 Sur 0 -- -- 91
2020-05-09 04:00:00 14 3 Sur 6 Sudoeste 0 -- -- 91
2020-05-09 03:00:00 14.8 3 Sudoeste 10 Sudeste 0 -- -- 88
2020-05-09 02:00:00 15.1 2 Sur 13 Sudoeste 0 -- -- 86
2020-05-09 01:00:00 15.4 5 Sudoeste 12 Sudoeste 0 -- -- 85
2020-05-09 00:00:00 16.1 6 Sudoeste 14 Sudoeste 0 -- -- 82
2020-05-08 23:00:00 16.9 7 Sudoeste 18 Sudoeste 0 -- -- 79
2020-05-08 22:00:00 17.9 8 Sudoeste 22 Sudoeste 0 -- -- 74
2020-05-08 21:00:00 19.7 12 Sudoeste 26 Sudoeste 0 -- -- 69
2020-05-08 20:00:00 21.7 12 Sudoeste 30 Oeste 0 -- -- 62
2020-05-08 19:00:00 23.2 15 Sudoeste 31 Oeste 0 -- -- 55
2020-05-08 18:00:00 24.7 16 Sudoeste 32 Sudoeste 0 -- -- 58
2020-05-08 17:00:00 25.8 18 Oeste 36 Oeste 0 -- -- 56
2020-05-08 16:00:00 26 14 Sudoeste 33 Sudoeste 0 -- -- 58
2020-05-08 15:00:00 26.2 19 Sudoeste 33 Sudoeste 0 -- -- 56
2020-05-08 14:00:00 27.3 15 Sudoeste 28 Sudoeste 0 -- -- 53
2020-05-08 13:00:00 25.9 9 Sur 22 Sudoeste 0 -- -- 49
2020-05-08 12:00:00 25.1 9 Sudoeste 19 Sudoeste 0 -- -- 48
2020-05-08 11:00:00 24.5 5 Oeste 13 Noroeste 0 -- -- 55
2020-05-08 10:00:00 22.2 3 Oeste 9 Oeste 0 -- -- 63
2020-05-08 09:00:00 19.4 2 Noroeste 6 Noroeste 0 -- -- 69
2020-05-08 08:00:00 15.7 2 Norte 5 Norte 0 -- -- 81
2020-05-08 07:00:00 16.1 3 Norte 7 Norte 0 -- -- 77
2020-05-08 06:00:00 16.5 4 Norte 9 Norte 0 -- -- 75
2020-05-08 05:00:00 16.9 3 Norte 10 Norte 0 -- -- 73
2020-05-08 04:00:00 17.5 4 Norte 12 Noroeste 0 -- -- 69
2020-05-08 03:00:00 18.1 4 Norte 10 Norte 0 -- -- 67
2020-05-08 02:00:00 18.7 4 Norte 9 Norte 0 -- -- 64
2020-05-08 01:00:00 19.6 2 Noroeste 12 Oeste 0 -- -- 61
2020-05-08 00:00:00 21 5 Oeste 17 Oeste 0 -- -- 57
2020-05-07 23:00:00 21.9 6 Oeste 15 Oeste 0 -- -- 57
2020-05-07 22:00:00 23.5 0 Calma 21 Sudoeste 0 -- -- 53
2020-05-07 21:00:00 25.4 12 Sudoeste 23 Sudoeste 0 -- -- 45
2020-05-07 20:00:00 27.7 8 Sudoeste 22 Oeste 0 -- -- 46
2020-05-07 19:00:00 29.1 10 Sudoeste 23 Sudoeste 0 -- -- 44
2020-05-07 18:00:00 31.2 10 Sudoeste 24 Sudoeste 0 -- -- 38
2020-05-07 17:00:00 31.5 7 Sudoeste 19 Sudoeste 0 -- -- 41
2020-05-07 16:00:00 30.9 8 Oeste 18 Oeste 0 -- -- 40
2020-05-07 15:00:00 29.7 9 Sudoeste 24 Oeste 0 -- -- 43
2020-05-07 14:00:00 28.8 8 Sudoeste 15 Sudoeste 0 -- -- 44
2020-05-07 13:00:00 28.8 3 Nordeste 12 Oeste 0 -- -- 46
2020-05-07 12:00:00 25.7 4 Noroeste 14 Norte 0 -- -- 54
2020-05-07 11:00:00 23.1 9 Norte 15 Nordeste 0 -- -- 59
2020-05-07 10:00:00 20.4 8 Norte 14 Norte 0 -- -- 64
2020-05-07 09:00:00 19.3 4 Noroeste 9 Norte 0 -- -- 65
2020-05-07 08:00:00 18.9 3 Nordeste 12 Norte 0 -- -- 62
2020-05-07 07:00:00 18.8 6 Nordeste 15 Nordeste 0 -- -- 58
2020-05-07 06:00:00 18.5 4 Noroeste 10 Norte 0 -- -- 64
2020-05-07 05:00:00 19.9 6 Norte 10 Norte 0 -- -- 57
2020-05-07 04:00:00 21 4 Norte 13 Este 0 -- -- 52
2020-05-07 03:00:00 21.4 4 Nordeste 13 Nordeste 0 -- -- 48
2020-05-07 02:00:00 21.4 5 Nordeste 10 Norte 0 -- -- 50
2020-05-07 01:00:00 21.6 2 Norte 11 Norte 0 -- -- 56
2020-05-07 00:00:00 23 6 Norte 14 Norte 0 -- -- 52
2020-05-06 23:00:00 23.9 5 Norte 12 Norte 0 -- -- 50
2020-05-06 22:00:00 24.7 4 Nordeste 9 Nordeste 0 -- -- 43
2020-05-06 21:00:00 26.5 5 Nordeste 12 Norte 0 -- -- 39
2020-05-06 20:00:00 28.2 4 Nordeste 18 Norte 0 -- -- 35
2020-05-06 19:00:00 29.2 3 Este 21 Este 0 -- -- 35
2020-05-06 18:00:00 30.4 7 Norte 20 Noroeste 0 -- -- 32
2020-05-06 17:00:00 30.1 5 Nordeste 18 Este 0 -- -- 35
2020-05-06 16:00:00 29.7 8 Norte 20 Norte 0 -- -- 37
2020-05-06 15:00:00 29.1 4 Norte 21 Este 0 -- -- 39
2020-05-06 14:00:00 28.2 5 Nordeste 14 Norte 0 -- -- 39
2020-05-06 13:00:00 27.3 6 Este 16 Nordeste 0 -- -- 45
2020-05-06 12:00:00 25.7 6 Nordeste 17 Norte 0 -- -- 49
2020-05-06 11:00:00 23.4 8 Nordeste 19 Nordeste 0 -- -- 56
2020-05-06 10:00:00 20.7 8 Norte 14 Noroeste 0 -- -- 64
2020-05-06 09:00:00 16 0 Calma 4 Noroeste 0 -- -- 94
2020-05-06 08:00:00 13.2 0 Calma 2 Sudoeste 0 -- -- 95
2020-05-06 07:00:00 13.4 0 Calma 5 Oeste 0 -- -- 94
2020-05-06 06:00:00 13.5 0 Calma 3 Sudoeste 0 -- -- 92
2020-05-06 05:00:00 13.9 2 Sudoeste 4 Sudoeste 0 -- -- 91
2020-05-06 04:00:00 14.7 2 Sur 5 Sur 0 -- -- 87
2020-05-06 03:00:00 16.3 3 Sudoeste 8 Sur 0 -- -- 78
2020-05-06 02:00:00 17.7 5 Norte 14 Norte 0 -- -- 61
2020-05-06 01:00:00 17.3 7 Noroeste 14 Norte 0 -- -- 63
2020-05-06 00:00:00 18.1 0 Calma 10 Sudoeste 0 -- -- 73
2020-05-05 23:00:00 19.2 4 Sur 23 Oeste 0 -- -- 68
2020-05-05 22:00:00 21 9 Oeste 26 Oeste 0 -- -- 60
2020-05-05 21:00:00 23.4 11 Oeste 22 Oeste 0 -- -- 53
2020-05-05 20:00:00 25.8 5 Oeste 13 Oeste 0 -- -- 34
2020-05-05 19:00:00 27.3 4 Sudoeste 17 Oeste 0 -- -- 37
2020-05-05 18:00:00 28.3 4 Norte 19 Oeste 0 -- -- 40
2020-05-05 17:00:00 28.6 8 Oeste 18 Noroeste 0 -- -- 38
2020-05-05 16:00:00 28 10 Norte 20 Norte 0 -- -- 42
2020-05-05 15:00:00 27.3 5 Oeste 15 Norte 0 -- -- 47
2020-05-05 14:00:00 25.8 3 Noroeste 10 Oeste 0 -- -- 50
2020-05-05 13:00:00 24.4 5 Sudeste 10 Sudeste 0 -- -- 59
2020-05-05 12:00:00 22.2 3 Sudoeste 12 Este 0 -- -- 66
2020-05-05 11:00:00 21 4 Este 10 Nordeste 0 -- -- 75
2020-05-05 10:00:00 19.1 4 Nordeste 11 Norte 0 -- -- 83
2020-05-05 09:00:00 17.8 6 Norte 18 Noroeste 0 -- -- 86
2020-05-05 08:00:00 17.5 6 Norte 14 Norte 0 -- -- 86
2020-05-05 07:00:00 17.3 5 Noroeste 13 Norte 0 -- -- 88
2020-05-05 06:00:00 17.2 2 Oeste 8 Sudoeste 0 -- -- 90
2020-05-05 05:00:00 17.2 4 Sudoeste 11 Sudoeste 0 -- -- 90
2020-05-05 04:00:00 17.4 4 Sudoeste 13 Sur 0 -- -- 91
2020-05-05 03:00:00 17.4 6 Sur 14 Sur 0 -- -- 93
2020-05-05 02:00:00 17 4 Sur 10 Sur 0 -- -- 94
2020-05-05 01:00:00 17.3 5 Sudoeste 10 Sudoeste 0 -- -- 92
2020-05-05 00:00:00 17.8 6 Sudoeste 10 Sur 0 -- -- 89
2020-05-04 23:00:00 18.2 5 Sudoeste 16 Sudoeste 0 -- -- 86
2020-05-04 22:00:00 19 10 Sudoeste 22 Sudoeste 0 -- -- 82
2020-05-04 21:00:00 20.5 11 Sudoeste 28 Sudoeste 0 -- -- 75
2020-05-04 20:00:00 22.4 10 Sudoeste 25 Sudoeste 0 -- -- 68
2020-05-04 19:00:00 24.2 16 Sudoeste 32 Sudoeste 0 -- -- 59
2020-05-04 18:00:00 25.9 15 Oeste 33 Sudoeste 0 -- -- 57
2020-05-04 17:00:00 26.4 18 Sudoeste 33 Oeste 0 -- -- 57
2020-05-04 16:00:00 26.7 16 Sudoeste 34 Sudoeste 0 -- -- 55
2020-05-04 15:00:00 26.3 17 Sudoeste 37 Sudoeste 0 -- -- 56
2020-05-04 14:00:00 27.6 18 Sudoeste 49 Sudoeste 0 -- -- 49
2020-05-04 13:00:00 26.3 25 Sudoeste 50 Sudoeste 0 -- -- 59
2020-05-04 12:00:00 27.1 14 Sudoeste 27 Oeste 0 -- -- 52
2020-05-04 11:00:00 27.2 13 Oeste 27 Sudoeste 0 -- -- 46
2020-05-04 10:00:00 24 4 Noroeste 15 Norte 0 -- -- 56
2020-05-04 09:00:00 20.7 6 Norte 15 Norte 0 -- -- 62
2020-05-04 08:00:00 19.1 4 Nordeste 13 Noroeste 0 -- -- 64
2020-05-04 07:00:00 19.1 5 Norte 8 Noroeste 0 -- -- 66
2020-05-04 06:00:00 19.4 3 Noroeste 13 Noroeste 0 -- -- 65
2020-05-04 05:00:00 19.5 5 Norte 12 Norte 0 -- -- 63
2020-05-04 04:00:00 20.3 5 Norte 15 Norte 0 -- -- 61
2020-05-04 03:00:00 20.3 9 Norte 15 Norte 0 -- -- 69
2020-05-04 02:00:00 21 6 Noroeste 9 Norte 0 -- -- 73
2020-05-04 01:00:00 22.2 3 Sudoeste 7 Sudoeste 0 -- -- 64
2020-05-04 00:00:00 23.2 2 Sudoeste 3 Sudoeste 0 -- -- 68
2020-05-03 23:00:00 24.5 0 Calma 13 Sudoeste 0 -- -- 63
2020-05-03 22:00:00 26.2 2 Norte 4 Norte 0 -- -- 60
2020-05-03 21:00:00 28.8 0 Calma 4 Oeste 0 -- -- 54
2020-05-03 20:00:00 32 3 Oeste 6 Oeste 0 -- -- 40
2020-05-03 19:00:00 33.3 3 Oeste 9 Oeste 0 -- -- 35
2020-05-03 18:00:00 34.5 3 Oeste 10 Sudoeste 0 -- -- 35
2020-05-03 17:00:00 34.6 5 Sudoeste 12 Sudoeste 0 -- -- 37
2020-05-03 16:00:00 34.4 6 Oeste 14 Oeste 0 -- -- 35
2020-05-03 15:00:00 33.4 5 Sudeste 16 Sudoeste 0 -- -- 39
2020-05-03 14:00:00 32.3 5 Sudeste 14 Sudeste 0 -- -- 39
2020-05-03 13:00:00 30.8 8 Este 16 Este 0 -- -- 42
2020-05-03 12:00:00 28.7 5 Nordeste 14 Norte 0 -- -- 52
2020-05-03 11:00:00 25.8 6 Nordeste 17 Norte 0 -- -- 57
2020-05-03 10:00:00 22.7 8 Nordeste 15 Norte 0 -- -- 66
2020-05-03 09:00:00 20 6 Nordeste 18 Norte 0 -- -- 74
2020-05-03 08:00:00 17.5 7 Nordeste 12 Norte 0 -- -- 82
2020-05-03 07:00:00 17.4 5 Norte 13 Nordeste 0 -- -- 83
2020-05-03 06:00:00 17.2 5 Norte 10 Norte 0 -- -- 86
2020-05-03 05:00:00 16.6 2 Norte 4 Noroeste 0 -- -- 89
2020-05-03 04:00:00 17.4 0 Calma 0 Calma 0 -- -- 87
2020-05-03 03:00:00 18.3 0 Calma 5 Sudoeste 0 -- -- 83
2020-05-03 02:00:00 19.6 3 Norte 6 Norte 0 -- -- 78
2020-05-03 01:00:00 20.4 2 Nordeste 5 Noroeste 0 -- -- 77
2020-05-03 00:00:00 21.4 2 Nordeste 8 Noroeste 0 -- -- 73
2020-05-02 23:00:00 22.8 2 Noroeste 10 Oeste 0 -- -- 67
2020-05-02 22:00:00 24.1 4 Noroeste 8 Oeste 0 -- -- 55
2020-05-02 21:00:00 27.1 3 Noroeste 6 Sudoeste 0 -- -- 51
2020-05-02 20:00:00 29.1 2 Oeste 8 Sur 0 -- -- 42
2020-05-02 19:00:00 30.4 4 Sudoeste 10 Sudoeste 0 -- -- 40
2020-05-02 18:00:00 31.6 5 Sudoeste 12 Oeste 0 -- -- 42
2020-05-02 17:00:00 31.4 6 Nordeste 15 Norte 0 -- -- 39
2020-05-02 16:00:00 31.4 8 Oeste 15 Noroeste 0 -- -- 46
2020-05-02 15:00:00 30.7 6 Noroeste 14 Noroeste 0 -- -- 52
2020-05-02 14:00:00 29.2 4 Sur 10 Nordeste 0 -- -- 57
2020-05-02 13:00:00 28.1 3 Norte 12 Norte 0 -- -- 59
2020-05-02 12:00:00 25.9 6 Norte 15 Norte 0 -- -- 64
2020-05-02 11:00:00 23.4 6 Nordeste 16 Norte 0 -- -- 69
2020-05-02 10:00:00 21 6 Norte 17 Nordeste 0 -- -- 75
2020-05-02 09:00:00 17.6 4 Norte 9 Norte 0 -- -- 94
2020-05-02 08:00:00 15.3 6 Norte 10 Norte 0 -- -- 96
2020-05-02 07:00:00 14.9 3 Norte 8 Norte 0 -- -- 95
2020-05-02 06:00:00 14.7 0 Calma 5 Noroeste 0 -- -- 94
2020-05-02 05:00:00 14.8 0 Calma -- -- 0 -- -- 92
2020-05-02 04:00:00 15.5 0 Calma 4 Sudoeste 0 -- -- 91
2020-05-02 03:00:00 16.2 3 Sudoeste 6 Sur 0 -- -- 89
2020-05-02 02:00:00 16.9 3 Sur 6 Sur 0 -- -- 87
2020-05-02 01:00:00 17.6 2 Sudoeste 9 Sur 0 -- -- 85
2020-05-02 00:00:00 18.5 3 Sur 9 Sur 0 -- -- 82
2020-05-01 23:00:00 19.8 5 Sur 13 Sudoeste 0 -- -- 79
2020-05-01 22:00:00 21.1 7 Sur 12 Sur 0 -- -- 74
2020-05-01 21:00:00 23 6 Sudoeste 19 Sudoeste 0 -- -- 69
2020-05-01 20:00:00 25 12 Sudoeste 22 Sudoeste 0 -- -- 61
2020-05-01 19:00:00 26.9 9 Sudoeste 18 Sudoeste 0 -- -- 53
2020-05-01 18:00:00 28 7 Sudoeste 15 Oeste 0 -- -- 49
2020-05-01 17:00:00 28.1 5 Noroeste 18 Oeste 0 -- -- 50
2020-05-01 16:00:00 27.2 6 Sudeste 16 Sudoeste 0 -- -- 50
2020-05-01 15:00:00 26.3 5 Sur 13 Sudoeste 0 -- -- 54
2020-05-01 14:00:00 25.4 5 Sur 12 Sudoeste 0 -- -- 53
2020-05-01 13:00:00 24.6 4 Sudoeste 11 Oeste 0 -- -- 58
2020-05-01 12:00:00 23.4 4 Nordeste 8 Este 0 -- -- 62
2020-05-01 11:00:00 21.1 4 Este 9 Este 0 -- -- 65
2020-05-01 10:00:00 18.4 4 Norte 9 Norte 0 -- -- 79
2020-05-01 09:00:00 14.7 5 Noroeste 7 Noroeste 0 -- -- 97
2020-05-01 08:00:00 12.6 0 Calma 5 Noroeste 0 -- -- 96
2020-05-01 07:00:00 12.3 0 Calma 6 Norte 0 -- -- 95
2020-05-01 06:00:00 12.8 5 Norte 11 Norte 0 -- -- 96
2020-05-01 05:00:00 13 0 Calma 3 Sudeste 0 -- -- 95
2020-05-01 04:00:00 13.4 3 Sudeste 5 Sudeste 0 -- -- 94
2020-05-01 03:00:00 14.1 0 Calma 9 Sur 0 -- -- 93
2020-05-01 02:00:00 14.3 3 Sudeste 9 Sudoeste 0 -- -- 91
2020-05-01 01:00:00 15.2 2 Sudeste 9 Sur 0 -- -- 88
2020-05-01 00:00:00 16.3 3 Sur 12 Oeste 0 -- -- 82
2020-04-30 23:00:00 17.3 3 Sudoeste 14 Sudoeste 0 -- -- 79
2020-04-30 22:00:00 18 5 Sudoeste 18 Sudoeste 0 -- -- 78
2020-04-30 21:00:00 19.4 10 Sudoeste 20 Sudoeste 0 -- -- 73
2020-04-30 20:00:00 21.6 10 Sudoeste 22 Sudoeste 0 -- -- 66
2020-04-30 19:00:00 23 10 Sudoeste 21 Sudoeste 0 -- -- 59
2020-04-30 18:00:00 24.5 11 Oeste 24 Sudoeste 0 -- -- 54
2020-04-30 17:00:00 24.9 10 Oeste 21 Sudoeste 0 -- -- 49
2020-04-30 16:00:00 22.8 8 Noroeste 23 Oeste 0 -- -- 54
2020-04-30 15:00:00 23.6 9 Oeste 18 Oeste 0 -- -- 58
2020-04-30 14:00:00 22.2 9 Oeste 18 Oeste 0 -- -- 60
2020-04-30 13:00:00 21.7 4 Sudoeste 9 Sur 0 -- -- 64
2020-04-30 12:00:00 20.7 6 Nordeste 18 Norte 0 -- -- 73
2020-04-30 11:00:00 16.7 5 Oeste 12 Noroeste 0 -- -- 94
2020-04-30 10:00:00 16 6 Sudoeste 12 Sudoeste 0 -- -- 96
2020-04-30 09:00:00 14.7 6 Sur 12 Sur 0 -- -- 98
2020-04-30 08:00:00 13.5 2 Sur 7 Sudoeste 0 -- -- 97
2020-04-30 07:00:00 13.9 3 Sudoeste 8 Sur 0 -- -- 98
2020-04-30 06:00:00 13.7 3 Sudoeste 7 Sudoeste 0 -- -- 98
2020-04-30 05:00:00 13.3 2 Sur 5 Sur 0 -- -- 97
2020-04-30 04:00:00 12.9 0 Calma 6 Sudoeste 0 -- -- 95
2020-04-30 03:00:00 13.4 4 Sur 9 Sur 0 -- -- 95
2020-04-30 02:00:00 13.8 3 Sur 9 Sur 0 -- -- 94
2020-04-30 01:00:00 14.2 3 Sur 12 Sur 0 -- -- 92
2020-04-30 00:00:00 14.6 5 Sur 14 Sudoeste 0 -- -- 90
2020-04-29 23:00:00 15.2 8 Sur 15 Sur 0 -- -- 86
2020-04-29 22:00:00 16.3 5 Sur 22 Sudoeste 0 -- -- 75
2020-04-29 21:00:00 17.9 11 Sudoeste 25 Sudoeste 0 -- -- 68
2020-04-29 20:00:00 19.5 13 Sudoeste 30 Sudoeste 0 -- -- 61
2020-04-29 19:00:00 21 15 Sudoeste 30 Sudoeste 0 -- -- 52
2020-04-29 18:00:00 21.7 16 Sudoeste 30 Sur 0 -- -- 51
2020-04-29 17:00:00 23.5 14 Sudoeste 31 Sur 0 -- -- 50
2020-04-29 16:00:00 23.6 9 Sudoeste 22 Sudoeste 0 -- -- 51
2020-04-29 15:00:00 23.8 11 Sudoeste 25 Sudoeste 0 -- -- 53
2020-04-29 14:00:00 22.8 10 Sudoeste 21 Oeste 0 -- -- 54
2020-04-29 13:00:00 22.6 5 Sudoeste 16 Sudoeste 0 -- -- 53
2020-04-29 12:00:00 21.5 4 Sur 9 Noroeste 0 -- -- 55
2020-04-29 11:00:00 19.5 4 Nordeste 9 Norte 0 -- -- 65
2020-04-29 10:00:00 16.7 4 Norte 8 Norte 0 -- -- 74
2020-04-29 09:00:00 12.8 4 Norte 9 Norte 0 -- -- 93
2020-04-29 08:00:00 9.7 0 Calma 8 Norte 0 -- -- 93
2020-04-29 07:00:00 10 0 Calma 12 Norte 0 -- -- 93
2020-04-29 06:00:00 10.2 2 Norte 5 Norte 0 -- -- 95
2020-04-29 05:00:00 10.6 0 Calma 4 Oeste 0 -- -- 95
2020-04-29 04:00:00 11 0 Calma 3 Sudeste 0 -- -- 93
2020-04-29 03:00:00 11.5 2 Sudeste 4 Oeste 0 -- -- 91
2020-04-29 02:00:00 12.3 0 Calma 4 Sudoeste 0 -- -- 88
2020-04-29 01:00:00 13.6 2 Sudoeste 4 Sudoeste 0 -- -- 83
2020-04-29 00:00:00 14.7 2 Sur 12 Oeste 0 -- -- 77
2020-04-28 23:00:00 15.8 6 Oeste 18 Oeste 0 -- -- 74
2020-04-28 22:00:00 16.8 8 Oeste 19 Oeste 0 -- -- 71
2020-04-28 21:00:00 18.6 9 Sudoeste 23 Sudoeste 0 -- -- 61
2020-04-28 20:00:00 20.3 8 Sudoeste 18 Oeste 0 -- -- 56
2020-04-28 19:00:00 21.3 7 Sudoeste 20 Sudoeste 0 -- -- 59
2020-04-28 18:00:00 21.8 7 Sudoeste 17 Sudoeste 0 -- -- 59
2020-04-28 17:00:00 22 8 Sur 21 Sudoeste 0 -- -- 59
2020-04-28 16:00:00 22.7 8 Sur 19 Sur 0 -- -- 56
2020-04-28 15:00:00 21.8 7 Sur 15 Sudoeste 0 -- -- 58
2020-04-28 14:00:00 22.7 5 Oeste 12 Sudoeste 0 -- -- 60
2020-04-28 13:00:00 20.6 4 Este 10 Noroeste 0 -- -- 70
2020-04-28 12:00:00 19.2 3 Norte 10 Norte 0 -- -- 77
2020-04-28 11:00:00 18.1 5 Nordeste 10 Norte 0 -- -- 82
2020-04-28 10:00:00 14.8 3 Este 9 Norte 0 -- -- 96
2020-04-28 09:00:00 13 4 Norte 8 Noroeste 0 -- -- 99
2020-04-28 08:00:00 11.7 2 Noroeste 6 Noroeste 0 -- -- 98
2020-04-28 07:00:00 12 3 Norte 5 Norte 0 -- -- 98
2020-04-28 06:00:00 11.6 0 Calma 3 Norte 0 -- -- 97
2020-04-28 05:00:00 11.6 0 Calma 4 Sudoeste 0 -- -- 96
2020-04-28 04:00:00 11.8 2 Sudoeste 7 Sudeste 0 -- -- 96
2020-04-28 03:00:00 12.3 3 Sur 6 Sudeste 0 -- -- 95
2020-04-28 02:00:00 12.7 3 Sudeste 8 Sur 0 -- -- 93
2020-04-28 01:00:00 13.1 4 Sur 10 Sudeste 0 -- -- 91
2020-04-28 00:00:00 13.9 3 Sudoeste 15 Sudoeste 0 -- -- 87